createdAt,value
2023-05-15T00:00:52.370Z,34.92
2023-05-15T00:01:52.399Z,34.97
2023-05-15T00:02:52.481Z,34.97
2023-05-15T00:03:52.469Z,34.92
2023-05-15T00:04:52.421Z,34.97
2023-05-15T00:05:52.446Z,34.94
2023-05-15T00:06:52.433Z,34.96
2023-05-15T00:07:52.450Z,34.93
2023-05-15T00:08:52.457Z,34.97
2023-05-15T00:09:52.474Z,34.94
2023-05-15T00:11:00.665Z,34.95
2023-05-15T00:11:52.526Z,34.97
2023-05-15T00:12:52.502Z,34.97
2023-05-15T00:13:52.512Z,34.94
2023-05-15T00:14:52.519Z,35.01
2023-05-15T00:15:52.596Z,35.01
2023-05-15T00:16:52.528Z,34.97
2023-05-15T00:17:52.726Z,34.98
2023-05-15T00:18:52.569Z,34.94
2023-05-15T00:19:52.563Z,34.99
2023-05-15T00:20:52.575Z,34.96
2023-05-15T00:21:52.596Z,34.99
2023-05-15T00:22:52.623Z,34.99
2023-05-15T00:23:52.614Z,34.98
2023-05-15T00:24:52.637Z,34.99
2023-05-15T00:25:52.657Z,35.01
2023-05-15T00:26:52.644Z,35.02
2023-05-15T00:27:52.680Z,34.99
2023-05-15T00:28:52.675Z,34.99
2023-05-15T00:29:52.682Z,35.02
2023-05-15T00:30:52.704Z,35.01
2023-05-15T00:31:52.745Z,34.97
2023-05-15T00:32:52.735Z,34.99
2023-05-15T00:33:52.739Z,34.98
2023-05-15T00:34:52.747Z,34.97
2023-05-15T00:35:52.753Z,35.03
2023-05-15T00:36:52.774Z,35.01
2023-05-15T00:37:52.784Z,35.02
2023-05-15T00:38:52.800Z,35.01
2023-05-15T00:39:52.812Z,34.96
2023-05-15T00:40:52.823Z,35.01
2023-05-15T00:41:52.828Z,35.03
2023-05-15T00:42:52.848Z,35.01
2023-05-15T00:43:52.878Z,35.02
2023-05-15T00:44:52.854Z,34.97
2023-05-15T00:45:52.870Z,35.00
2023-05-15T00:46:52.993Z,34.99
2023-05-15T00:47:52.954Z,35.00
2023-05-15T00:48:52.905Z,34.98
2023-05-15T00:49:52.939Z,35.03
2023-05-15T00:50:52.930Z,35.02
2023-05-15T00:51:52.945Z,34.98
2023-05-15T00:52:52.947Z,34.99
2023-05-15T00:53:53.049Z,34.97
2023-05-15T00:54:52.973Z,35.01
2023-05-15T00:55:52.984Z,35.02
2023-05-15T00:56:52.995Z,35.01
2023-05-15T00:57:52.997Z,35.05
2023-05-15T00:58:53.007Z,35.03
2023-05-15T00:59:53.054Z,35.01
2023-05-15T01:00:53.103Z,34.98
2023-05-15T01:01:53.123Z,35.03
2023-05-15T01:02:53.125Z,35.01
2023-05-15T01:03:53.072Z,35.03
2023-05-15T01:04:53.099Z,34.99
2023-05-15T01:05:53.106Z,34.99
2023-05-15T01:06:53.107Z,34.99
2023-05-15T01:07:53.129Z,35.00
2023-05-15T01:08:53.118Z,35.03
2023-05-15T01:09:53.139Z,35.03
2023-05-15T01:10:53.149Z,35.00
2023-05-15T01:11:53.165Z,35.01
2023-05-15T01:12:53.201Z,34.96
2023-05-15T01:13:53.205Z,35.00
2023-05-15T01:14:53.213Z,35.02
2023-05-15T01:15:53.253Z,35.03
2023-05-15T01:16:53.241Z,35.02
2023-05-15T01:17:53.302Z,35.01
2023-05-15T01:18:53.384Z,34.99
2023-05-15T01:19:53.379Z,35.00
2023-05-15T01:20:53.284Z,35.01
2023-05-15T01:21:53.294Z,35.04
2023-05-15T01:22:53.308Z,34.98
2023-05-15T01:23:53.317Z,35.02
2023-05-15T01:24:53.327Z,35.01
2023-05-15T01:25:53.339Z,34.98
2023-05-15T01:26:53.359Z,34.98
2023-05-15T01:27:53.364Z,35.04
2023-05-15T01:28:53.371Z,35.00
2023-05-15T01:29:53.390Z,35.04
2023-05-15T01:30:53.395Z,35.01
2023-05-15T01:31:53.458Z,35.03
2023-05-15T01:32:53.459Z,35.03
2023-05-15T01:33:53.430Z,35.02
2023-05-15T01:34:53.441Z,35.00
2023-05-15T01:35:53.457Z,35.06
2023-05-15T01:36:53.460Z,35.02
2023-05-15T01:37:53.482Z,35.02
2023-05-15T01:38:53.476Z,35.00
2023-05-15T01:39:53.678Z,35.03
2023-05-15T01:40:53.506Z,34.99
2023-05-15T01:41:53.515Z,35.01
2023-05-15T01:42:53.532Z,35.01
2023-05-15T01:43:53.556Z,35.04
2023-05-15T01:44:53.564Z,35.01
2023-05-15T01:45:53.607Z,35.03
2023-05-15T01:46:53.835Z,35.02
2023-05-15T01:47:53.678Z,35.03
2023-05-15T01:48:53.608Z,35.04
2023-05-15T01:49:53.616Z,35.04
2023-05-15T01:50:53.634Z,34.99
2023-05-15T01:51:53.638Z,35.01
2023-05-15T01:52:53.662Z,35.04
2023-05-15T01:53:53.659Z,35.01
2023-05-15T01:54:53.676Z,35.02
2023-05-15T01:55:53.682Z,34.99
2023-05-15T01:56:53.683Z,35.03
2023-05-15T01:57:53.679Z,35.03
2023-05-15T01:58:53.686Z,35.00
2023-05-15T01:59:53.693Z,35.01
2023-05-15T02:00:53.713Z,35.03
2023-05-15T02:01:53.806Z,35.01
2023-05-15T02:02:53.759Z,35.06
2023-05-15T02:03:53.872Z,35.03
2023-05-15T02:04:53.753Z,34.99
2023-05-15T02:05:53.768Z,35.00
2023-05-15T02:06:53.778Z,35.03
2023-05-15T02:07:53.777Z,35.00
2023-05-15T02:08:53.794Z,35.01
2023-05-15T02:09:53.799Z,35.03
2023-05-15T02:10:53.803Z,34.99
2023-05-15T02:11:53.811Z,35.04
2023-05-15T02:12:53.826Z,35.01
2023-05-15T02:13:53.838Z,35.03
2023-05-15T02:14:53.847Z,35.01
2023-05-15T02:15:53.932Z,35.06
2023-05-15T02:16:53.873Z,35.03
2023-05-15T02:17:53.919Z,35.04
2023-05-15T02:18:54.010Z,35.01
2023-05-15T02:19:54.052Z,35.03
2023-05-15T02:20:53.923Z,35.08
2023-05-15T02:21:53.938Z,35.01
2023-05-15T02:22:53.949Z,34.99
2023-05-15T02:23:53.957Z,35.06
2023-05-15T02:24:53.960Z,35.04
2023-05-15T02:25:53.976Z,35.07
2023-05-15T02:26:54.070Z,35.04
2023-05-15T02:27:54.014Z,35.03
2023-05-15T02:28:54.038Z,35.05
2023-05-15T02:29:54.060Z,35.08
2023-05-15T02:30:54.080Z,35.06
2023-05-15T02:31:54.146Z,35.04
2023-05-15T02:32:54.170Z,35.07
2023-05-15T02:33:54.151Z,35.03
2023-05-15T02:34:54.166Z,35.01
2023-05-15T02:35:54.220Z,35.05
2023-05-15T02:36:54.222Z,35.04
2023-05-15T02:37:54.246Z,35.05
2023-05-15T02:38:54.259Z,35.05
2023-05-15T02:39:54.284Z,35.01
2023-05-15T02:40:54.305Z,35.03
2023-05-15T02:41:54.325Z,35.05
2023-05-15T02:42:54.353Z,35.04
2023-05-15T02:43:54.375Z,35.04
2023-05-15T02:44:54.407Z,35.08
2023-05-15T02:45:54.433Z,35.08
2023-05-15T02:46:54.550Z,35.07
2023-05-15T02:47:54.518Z,35.07
2023-05-15T02:48:54.486Z,35.04
2023-05-15T02:49:54.492Z,35.07
2023-05-15T02:50:54.514Z,35.04
2023-05-15T02:51:54.565Z,35.03
2023-05-15T02:52:54.548Z,35.01
2023-05-15T02:53:54.564Z,35.04
2023-05-15T02:54:54.588Z,35.03
2023-05-15T02:55:54.609Z,35.05
2023-05-15T02:56:54.625Z,35.05
2023-05-15T02:57:54.641Z,35.04
2023-05-15T02:58:54.657Z,35.08
2023-05-15T02:59:54.679Z,35.04
2023-05-15T03:00:54.769Z,35.05
2023-05-15T03:01:54.782Z,35.03
2023-05-15T03:02:54.759Z,35.08
2023-05-15T03:03:54.778Z,35.08
2023-05-15T03:04:54.775Z,35.04
2023-05-15T03:05:54.787Z,35.05
2023-05-15T03:06:54.810Z,35.03
2023-05-15T03:07:54.851Z,35.08
2023-05-15T03:08:54.841Z,35.08
2023-05-15T03:09:54.890Z,35.09
2023-05-15T03:10:54.946Z,35.07
2023-05-15T03:11:54.909Z,35.04
2023-05-15T03:12:54.924Z,35.08
2023-05-15T03:13:54.946Z,35.06
2023-05-15T03:14:54.977Z,35.04
2023-05-15T03:15:54.992Z,35.04
2023-05-15T03:16:55.072Z,35.04
2023-05-15T03:17:55.088Z,35.05
2023-05-15T03:18:55.096Z,35.09
2023-05-15T03:19:55.096Z,35.05
2023-05-15T03:20:55.127Z,35.09
2023-05-15T03:21:55.148Z,35.06
2023-05-15T03:22:55.178Z,35.07
2023-05-15T03:23:55.226Z,35.09
2023-05-15T03:24:55.224Z,35.08
2023-05-15T03:25:55.255Z,35.03
2023-05-15T03:26:55.269Z,35.05
2023-05-15T03:27:55.296Z,35.05
2023-05-15T03:28:55.324Z,35.09
2023-05-15T03:29:55.342Z,35.09
2023-05-15T03:30:55.370Z,35.05
2023-05-15T03:31:55.452Z,35.04
2023-05-15T03:32:55.456Z,35.12
2023-05-15T03:33:55.448Z,35.05
2023-05-15T03:34:55.495Z,35.10
2023-05-15T03:35:55.512Z,35.04
2023-05-15T03:36:55.538Z,35.05
2023-05-15T03:37:55.564Z,35.05
2023-05-15T03:38:55.587Z,35.04
2023-05-15T03:39:55.659Z,35.09
2023-05-15T03:40:55.656Z,35.09
2023-05-15T03:41:55.689Z,35.05
2023-05-15T03:42:55.689Z,35.08
2023-05-15T03:43:55.710Z,35.07
2023-05-15T03:44:55.749Z,35.04
2023-05-15T03:45:55.770Z,35.09
2023-05-15T03:46:55.893Z,35.08
2023-05-15T03:47:55.850Z,35.08
2023-05-15T03:48:55.838Z,35.08
2023-05-15T03:49:55.864Z,35.10
2023-05-15T03:50:56.273Z,35.10
2023-05-15T03:51:55.919Z,35.06
2023-05-15T03:52:55.949Z,35.08
2023-05-15T03:53:55.966Z,35.08
2023-05-15T03:54:55.998Z,35.05
2023-05-15T03:55:56.091Z,35.04
2023-05-15T03:56:56.048Z,35.08
2023-05-15T03:57:56.095Z,35.04
2023-05-15T03:58:56.107Z,35.04
2023-05-15T03:59:56.146Z,35.08
2023-05-15T04:00:56.177Z,35.05
2023-05-15T04:02:04.969Z,35.08
2023-05-15T04:02:56.365Z,35.05
2023-05-15T04:03:56.227Z,35.05
2023-05-15T04:04:56.275Z,35.09
2023-05-15T04:05:56.311Z,35.05
2023-05-15T04:06:56.248Z,35.06
2023-05-15T04:07:56.262Z,35.02
2023-05-15T04:08:56.269Z,35.06
2023-05-15T04:09:56.285Z,35.04
2023-05-15T04:10:56.296Z,35.12
2023-05-15T04:11:56.337Z,35.08
2023-05-15T04:12:56.318Z,35.06
2023-05-15T04:13:56.341Z,35.09
2023-05-15T04:14:56.360Z,35.11
2023-05-15T04:15:56.441Z,35.09
2023-05-15T04:16:56.379Z,35.09
2023-05-15T04:17:56.451Z,35.10
2023-05-15T04:18:56.448Z,35.10
2023-05-15T04:19:56.433Z,35.10
2023-05-15T04:20:56.445Z,35.06
2023-05-15T04:21:56.455Z,35.09
2023-05-15T04:22:56.472Z,35.08
2023-05-15T04:23:56.475Z,35.09
2023-05-15T04:24:56.492Z,35.06
2023-05-15T04:25:56.495Z,35.06
2023-05-15T04:26:56.557Z,35.12
2023-05-15T04:27:56.541Z,35.09
2023-05-15T04:29:56.543Z,35.13
2023-05-15T04:30:56.564Z,35.12
2023-05-15T04:31:56.604Z,35.09
2023-05-15T04:32:56.662Z,35.08
2023-05-15T04:33:56.582Z,35.09
2023-05-15T04:34:56.589Z,35.04
2023-05-15T04:35:56.601Z,35.08
2023-05-15T04:36:56.612Z,35.08
2023-05-15T04:37:56.621Z,35.06
2023-05-15T04:38:56.626Z,35.09
2023-05-15T04:39:56.633Z,35.06
2023-05-15T04:40:56.650Z,35.08
2023-05-15T04:41:56.655Z,35.06
2023-05-15T04:42:56.653Z,35.06
2023-05-15T04:43:56.702Z,35.07
2023-05-15T04:44:56.678Z,35.10
2023-05-15T04:45:56.720Z,35.08
2023-05-15T04:46:56.698Z,35.04
2023-05-15T04:47:56.723Z,35.05
2023-05-15T04:48:56.719Z,35.06
2023-05-15T04:49:56.733Z,35.06
2023-05-15T04:50:56.742Z,35.05
2023-05-15T04:51:56.753Z,35.06
2023-05-15T04:52:56.760Z,35.05
2023-05-15T04:53:56.765Z,35.02
2023-05-15T04:54:56.776Z,35.05
2023-05-15T04:55:56.787Z,35.08
2023-05-15T04:56:56.829Z,35.03
2023-05-15T04:57:56.815Z,35.09
2023-05-15T04:58:56.828Z,35.05
2023-05-15T04:59:56.948Z,35.09
2023-05-15T05:00:56.860Z,35.06
2023-05-15T05:01:56.940Z,35.08
2023-05-15T05:02:56.944Z,35.09
2023-05-15T05:03:56.921Z,35.09
2023-05-15T05:04:56.919Z,35.07
2023-05-15T05:05:56.929Z,35.10
2023-05-15T05:06:56.960Z,35.08
2023-05-15T05:07:56.964Z,35.10
2023-05-15T05:08:56.974Z,35.06
2023-05-15T05:09:56.994Z,35.06
2023-05-15T05:10:57.014Z,35.08
2023-05-15T05:11:57.022Z,35.08
2023-05-15T05:12:57.043Z,35.07
2023-05-15T05:13:57.058Z,35.03
2023-05-15T05:14:57.074Z,35.05
2023-05-15T05:15:57.164Z,35.06
2023-05-15T05:16:57.094Z,35.02
2023-05-15T05:17:57.161Z,35.05
2023-05-15T05:18:57.147Z,35.05
2023-05-15T05:19:57.133Z,35.02
2023-05-15T05:20:57.158Z,35.05
2023-05-15T05:21:57.253Z,35.01
2023-05-15T05:22:57.180Z,35.08
2023-05-15T05:23:57.201Z,35.01
2023-05-15T05:24:57.227Z,35.04
2023-05-15T05:25:57.211Z,35.07
2023-05-15T05:26:58.274Z,35.14
2023-05-15T05:27:57.246Z,35.11
2023-05-15T05:28:57.758Z,35.17
2023-05-15T05:29:57.255Z,35.15
2023-05-15T05:30:57.275Z,35.22
2023-05-15T05:31:58.062Z,35.21
2023-05-15T05:32:57.321Z,35.24
2023-05-15T05:33:57.405Z,35.27
2023-05-15T05:34:57.321Z,35.25
2023-05-15T05:35:57.330Z,35.27
2023-05-15T05:36:57.760Z,35.30
2023-05-15T05:37:57.352Z,35.33
2023-05-15T05:38:57.766Z,35.30
2023-05-15T05:39:57.392Z,35.32
2023-05-15T05:40:57.393Z,35.33
2023-05-15T05:41:57.785Z,35.34
2023-05-15T05:42:57.414Z,35.33
2023-05-15T05:43:57.425Z,35.41
2023-05-15T05:44:57.426Z,35.37
2023-05-15T05:45:58.433Z,35.41
2023-05-15T05:46:57.815Z,35.54
2023-05-15T05:47:57.557Z,35.47
2023-05-15T05:48:57.570Z,35.57
2023-05-15T05:49:57.627Z,35.80
2023-05-15T05:50:57.603Z,35.72
2023-05-15T05:51:57.768Z,35.74
2023-05-15T05:52:57.696Z,35.82
2023-05-15T05:53:58.718Z,35.93
2023-05-15T05:54:57.765Z,36.31
2023-05-15T05:55:57.804Z,36.27
2023-05-15T05:56:58.256Z,36.33
2023-05-15T05:57:58.267Z,36.41
2023-05-15T05:59:01.127Z,37.25
2023-05-15T06:02:02.226Z,36.95
2023-05-15T06:03:14.025Z,36.90
2023-05-15T06:04:14.341Z,36.93
2023-05-15T06:04:57.964Z,36.89
2023-05-15T06:07:05.397Z,36.88
2023-05-15T06:08:01.216Z,36.82
2023-05-15T06:08:58.024Z,36.86
2023-05-15T06:09:58.050Z,36.86
2023-05-15T06:10:58.233Z,36.85
2023-05-15T06:12:06.245Z,36.82
2023-05-15T06:13:01.271Z,36.82
2023-05-15T06:13:58.125Z,36.86
2023-05-15T06:14:58.154Z,36.78
2023-05-15T06:15:58.113Z,36.81
2023-05-15T06:16:58.346Z,36.73
2023-05-15T06:17:58.163Z,36.68
2023-05-15T06:18:58.239Z,36.71
2023-05-15T06:19:58.178Z,36.71
2023-05-15T06:20:58.177Z,36.73
2023-05-15T06:21:58.270Z,36.69
2023-05-15T06:22:59.272Z,36.69
2023-05-15T06:23:58.216Z,36.67
2023-05-15T06:24:58.233Z,36.68
2023-05-15T06:25:58.258Z,36.69
2023-05-15T06:26:58.772Z,36.67
2023-05-15T06:28:30.219Z,36.61
2023-05-15T06:28:58.296Z,36.60
2023-05-15T06:29:58.308Z,36.60
2023-05-15T06:30:58.376Z,36.61
2023-05-15T06:31:58.349Z,36.61
2023-05-15T06:32:58.805Z,36.57
2023-05-15T06:33:58.374Z,36.60
2023-05-15T06:34:58.611Z,36.56
2023-05-15T06:35:58.420Z,36.49
2023-05-15T06:36:58.787Z,36.48
2023-05-15T06:37:58.799Z,36.43
2023-05-15T06:38:58.458Z,36.45
2023-05-15T06:39:58.470Z,36.42
2023-05-15T06:40:58.778Z,36.50
2023-05-15T06:42:06.178Z,36.41
2023-05-15T06:42:58.514Z,36.39
2023-05-15T06:43:58.820Z,36.33
2023-05-15T06:44:58.612Z,36.43
2023-05-15T06:45:58.578Z,36.44
2023-05-15T06:46:58.811Z,36.44
2023-05-15T06:48:01.843Z,36.49
2023-05-15T06:48:58.600Z,36.47
2023-05-15T06:50:14.787Z,36.48
2023-05-15T06:50:58.668Z,36.47
2023-05-15T06:51:58.786Z,36.49
2023-05-15T06:53:01.856Z,36.38
2023-05-15T06:53:58.802Z,36.45
2023-05-15T06:54:58.674Z,36.41
2023-05-15T06:55:58.697Z,36.48
2023-05-15T06:56:58.791Z,36.53
2023-05-15T06:57:59.095Z,36.49
2023-05-15T06:58:58.748Z,36.47
2023-05-15T06:59:58.756Z,36.50
2023-05-15T07:00:59.468Z,36.49
2023-05-15T07:01:58.845Z,36.50
2023-05-15T07:02:58.841Z,36.48
2023-05-15T07:03:59.201Z,36.45
2023-05-15T07:04:58.867Z,36.41
2023-05-15T07:05:59.351Z,36.37
2023-05-15T07:06:58.842Z,36.42
2023-05-15T07:07:58.870Z,36.43
2023-05-15T07:08:59.080Z,36.41
2023-05-15T07:09:58.904Z,36.35
2023-05-15T07:10:59.296Z,36.35
2023-05-15T07:11:59.755Z,36.38
2023-05-15T07:13:00.039Z,36.37
2023-05-15T07:13:59.088Z,36.37
2023-05-15T07:14:59.129Z,36.40
2023-05-15T07:15:59.292Z,36.41
2023-05-15T07:16:59.230Z,36.40
2023-05-15T07:17:59.313Z,36.40
2023-05-15T07:18:59.321Z,36.39
2023-05-15T07:19:59.339Z,36.34
2023-05-15T07:20:59.796Z,36.41
2023-05-15T07:22:03.480Z,36.40
2023-05-15T07:22:59.794Z,36.43
2023-05-15T07:23:59.454Z,36.43
2023-05-15T07:24:59.462Z,36.47
2023-05-15T07:25:59.473Z,36.48
2023-05-15T07:26:59.549Z,36.45
2023-05-15T07:27:59.994Z,36.42
2023-05-15T07:28:59.807Z,36.36
2023-05-15T07:29:59.569Z,36.41
2023-05-15T07:31:04.144Z,36.43
2023-05-15T07:32:00.140Z,36.48
2023-05-15T07:32:59.767Z,36.50
2023-05-15T07:33:59.780Z,36.47
2023-05-15T07:35:07.233Z,36.51
2023-05-15T07:36:01.372Z,36.67
2023-05-15T07:36:59.885Z,36.66
2023-05-15T07:38:00.072Z,36.73
2023-05-15T07:38:59.969Z,36.86
2023-05-15T07:40:00.071Z,37.07
2023-05-15T07:41:03.261Z,37.12
2023-05-15T07:42:00.338Z,37.37
2023-05-15T07:43:00.312Z,37.45
2023-05-15T07:44:00.484Z,37.51
2023-05-15T07:45:00.127Z,37.51
2023-05-15T07:46:03.392Z,37.60
2023-05-15T07:47:00.150Z,37.61
2023-05-15T07:48:00.388Z,37.67
2023-05-15T07:49:00.193Z,37.66
2023-05-15T07:50:00.177Z,37.73
2023-05-15T07:51:00.125Z,37.81
2023-05-15T07:52:00.153Z,37.78
2023-05-15T07:54:00.328Z,37.97
2023-05-15T07:55:01.178Z,38.18
2023-05-15T07:56:00.164Z,38.22
2023-05-15T07:57:00.306Z,38.16
2023-05-15T07:58:00.314Z,38.13
2023-05-15T07:59:03.462Z,38.07
2023-05-15T08:00:00.223Z,38.10
2023-05-15T08:01:03.443Z,38.11
2023-05-15T08:02:01.321Z,38.20
2023-05-15T08:03:00.537Z,38.17
2023-05-15T08:04:00.445Z,38.06
2023-05-15T08:05:00.239Z,37.98
2023-05-15T08:06:00.324Z,38.01
2023-05-15T08:07:00.285Z,37.96
2023-05-15T08:08:00.338Z,38.13
2023-05-15T08:09:00.297Z,38.19
2023-05-15T08:10:00.328Z,38.21
2023-05-15T08:11:07.716Z,38.19
2023-05-15T08:12:00.330Z,38.22
2023-05-15T08:13:01.242Z,38.21
2023-05-15T08:14:00.391Z,38.29
2023-05-15T08:15:00.377Z,38.25
2023-05-15T08:16:00.430Z,38.41
2023-05-15T08:17:00.410Z,38.61
2023-05-15T08:18:01.338Z,38.70
2023-05-15T08:19:00.444Z,38.63
2023-05-15T08:20:01.429Z,38.69
2023-05-15T08:21:00.947Z,38.80
2023-05-15T08:22:00.485Z,38.80
2023-05-15T08:23:00.506Z,38.74
2023-05-15T08:24:00.859Z,38.83
2023-05-15T08:25:01.533Z,38.90
2023-05-15T08:26:00.614Z,38.99
2023-05-15T08:27:00.560Z,39.00
2023-05-15T08:28:00.813Z,39.07
2023-05-15T08:29:00.729Z,39.05
2023-05-15T08:30:00.846Z,39.04
2023-05-15T08:31:00.642Z,39.08
2023-05-15T08:32:00.640Z,39.11
2023-05-15T08:33:00.889Z,39.19
2023-05-15T08:34:00.680Z,39.39
2023-05-15T08:35:00.834Z,39.33
2023-05-15T08:36:00.717Z,39.31
2023-05-15T08:37:00.724Z,39.36
2023-05-15T08:38:00.702Z,39.40
2023-05-15T08:39:00.899Z,39.65
2023-05-15T08:40:00.819Z,39.56
2023-05-15T08:41:00.735Z,39.66
2023-05-15T08:42:00.784Z,39.62
2023-05-15T08:43:00.762Z,39.60
2023-05-15T08:44:00.778Z,39.64
2023-05-15T08:45:00.827Z,39.55
2023-05-15T08:46:00.805Z,39.56
2023-05-15T08:48:04.050Z,39.63
2023-05-15T08:49:00.901Z,39.63
2023-05-15T08:50:01.029Z,39.73
2023-05-15T08:51:00.849Z,39.61
2023-05-15T08:52:00.876Z,39.58
2023-05-15T08:53:01.338Z,39.59
2023-05-15T08:54:00.867Z,39.53
2023-05-15T08:55:00.871Z,39.82
2023-05-15T08:56:00.878Z,39.64
2023-05-15T08:57:00.904Z,39.62
2023-05-15T08:58:01.374Z,39.79
2023-05-15T08:59:32.709Z,39.69
2023-05-15T09:00:00.901Z,39.73
2023-05-15T09:01:00.899Z,39.67
2023-05-15T09:02:01.202Z,39.66
2023-05-15T09:03:01.474Z,39.61
2023-05-15T09:04:00.985Z,39.56
2023-05-15T09:05:01.334Z,39.64
2023-05-15T09:06:00.965Z,39.59
2023-05-15T09:07:00.908Z,39.55
2023-05-15T09:08:00.923Z,39.37
2023-05-15T09:09:16.540Z,39.45
2023-05-15T09:10:01.336Z,39.34
2023-05-15T09:11:00.915Z,39.47
2023-05-15T09:12:00.922Z,39.48
2023-05-15T09:13:00.917Z,39.45
2023-05-15T09:14:00.967Z,39.35
2023-05-15T09:15:01.346Z,39.30
2023-05-15T09:16:00.928Z,39.32
2023-05-15T09:17:01.012Z,39.38
2023-05-15T09:18:00.976Z,39.43
2023-05-15T09:19:01.072Z,39.55
2023-05-15T09:20:00.919Z,39.46
2023-05-15T09:21:00.929Z,39.43
2023-05-15T09:22:00.920Z,39.60
2023-05-15T09:23:01.359Z,39.58
2023-05-15T09:24:00.913Z,39.56
2023-05-15T09:25:01.341Z,39.52
2023-05-15T09:26:01.401Z,39.66
2023-05-15T09:27:00.904Z,39.64
2023-05-15T09:28:00.897Z,39.73
2023-05-15T09:29:00.898Z,39.74
2023-05-15T09:30:01.095Z,39.64
2023-05-15T09:31:01.346Z,39.55
2023-05-15T09:32:02.141Z,39.36
2023-05-15T09:33:01.123Z,39.79
2023-05-15T09:34:01.368Z,40.04
2023-05-15T09:35:01.180Z,40.21
2023-05-15T09:37:02.229Z,39.82
2023-05-15T09:38:01.348Z,39.94
2023-05-15T09:39:01.225Z,39.74
2023-05-15T09:40:01.275Z,39.68
2023-05-15T09:41:01.241Z,39.48
2023-05-15T09:42:01.246Z,39.58
2023-05-15T09:43:01.753Z,39.27
2023-05-15T09:44:01.264Z,39.07
2023-05-15T09:45:01.255Z,38.82
2023-05-15T09:46:01.527Z,38.63
2023-05-15T09:47:01.319Z,38.65
2023-05-15T09:48:01.540Z,38.74
2023-05-15T09:49:01.271Z,38.88
2023-05-15T09:50:01.312Z,38.95
2023-05-15T09:51:01.386Z,38.96
2023-05-15T09:52:01.416Z,39.02
2023-05-15T09:53:01.512Z,38.93
2023-05-15T09:54:01.507Z,39.05
2023-05-15T09:55:01.629Z,39.02
2023-05-15T09:56:01.851Z,38.91
2023-05-15T09:57:01.630Z,39.07
2023-05-15T09:58:01.857Z,39.03
2023-05-15T09:59:01.700Z,39.13
2023-05-15T10:00:01.723Z,38.73
2023-05-15T10:01:01.750Z,38.83
2023-05-15T10:02:01.954Z,38.96
2023-05-15T10:03:01.919Z,38.98
2023-05-15T10:04:02.841Z,38.84
2023-05-15T10:05:02.154Z,38.62
2023-05-15T10:06:02.025Z,38.52
2023-05-15T10:07:01.916Z,38.42
2023-05-15T10:08:05.140Z,38.37
2023-05-15T10:09:01.951Z,38.46
2023-05-15T10:10:01.980Z,38.40
2023-05-15T10:11:02.381Z,38.40
2023-05-15T10:12:01.934Z,38.30
2023-05-15T10:13:02.373Z,38.34
2023-05-15T10:14:01.930Z,38.45
2023-05-15T10:15:01.960Z,38.63
2023-05-15T10:16:01.980Z,38.55
2023-05-15T10:17:01.913Z,38.66
2023-05-15T10:18:02.476Z,38.56
2023-05-15T10:19:04.811Z,38.51
2023-05-15T10:20:01.904Z,38.59
2023-05-15T10:21:09.282Z,38.52
2023-05-15T10:22:01.871Z,38.48
2023-05-15T10:23:01.864Z,38.73
2023-05-15T10:24:01.880Z,38.68
2023-05-15T10:25:01.865Z,38.73
2023-05-15T10:26:01.834Z,38.79
2023-05-15T10:27:01.831Z,38.84
2023-05-15T10:28:01.826Z,38.92
2023-05-15T10:29:01.878Z,38.85
2023-05-15T10:30:01.819Z,38.97
2023-05-15T10:31:01.939Z,39.26
2023-05-15T10:32:01.799Z,39.26
2023-05-15T10:33:01.856Z,39.34
2023-05-15T10:34:01.825Z,39.43
2023-05-15T10:35:01.791Z,39.58
2023-05-15T10:36:01.779Z,39.67
2023-05-15T10:37:01.786Z,39.71
2023-05-15T10:38:01.764Z,39.64
2023-05-15T10:39:01.761Z,39.86
2023-05-15T10:40:01.753Z,39.97
2023-05-15T10:41:15.928Z,40.02
2023-05-15T10:42:01.869Z,40.12
2023-05-15T10:43:01.766Z,39.96
2023-05-15T10:44:01.870Z,39.98
2023-05-15T10:45:01.758Z,39.88
2023-05-15T10:46:01.744Z,39.74
2023-05-15T10:47:01.832Z,39.56
2023-05-15T10:48:01.944Z,39.31
2023-05-15T10:49:01.939Z,39.19
2023-05-15T10:50:01.860Z,39.52
2023-05-15T10:51:04.945Z,39.33
2023-05-15T10:52:01.722Z,39.50
2023-05-15T10:53:01.757Z,39.54
2023-05-15T10:54:03.454Z,39.25
2023-05-15T10:55:01.931Z,39.38
2023-05-15T10:56:02.405Z,39.36
2023-05-15T10:57:02.963Z,39.42
2023-05-15T10:58:01.981Z,39.24
2023-05-15T10:59:01.992Z,39.29
2023-05-15T11:00:02.077Z,39.42
2023-05-15T11:01:02.393Z,39.33
2023-05-15T11:02:02.042Z,39.37
2023-05-15T11:03:02.066Z,39.46
2023-05-15T11:04:02.068Z,39.55
2023-05-15T11:05:02.110Z,39.60
2023-05-15T11:06:02.123Z,39.60
2023-05-15T11:07:02.098Z,39.84
2023-05-15T11:08:02.118Z,39.63
2023-05-15T11:09:02.416Z,39.76
2023-05-15T11:10:03.591Z,39.69
2023-05-15T11:11:02.131Z,39.48
2023-05-15T11:12:02.129Z,39.62
2023-05-15T11:13:02.127Z,39.54
2023-05-15T11:14:02.394Z,40.03
2023-05-15T11:15:02.120Z,39.93
2023-05-15T11:16:02.102Z,40.04
2023-05-15T11:17:02.168Z,40.05
2023-05-15T11:18:02.147Z,39.68
2023-05-15T11:19:02.446Z,39.66
2023-05-15T11:20:02.124Z,39.70
2023-05-15T11:21:02.479Z,39.44
2023-05-15T11:22:02.100Z,39.48
2023-05-15T11:23:02.057Z,39.43
2023-05-15T11:24:02.052Z,39.38
2023-05-15T11:25:02.258Z,39.16
2023-05-15T11:26:02.455Z,39.13
2023-05-15T11:27:02.261Z,39.15
2023-05-15T11:28:02.888Z,39.00
2023-05-15T11:29:09.802Z,39.01
2023-05-15T11:30:02.034Z,38.87
2023-05-15T11:31:02.038Z,38.87
2023-05-15T11:32:02.015Z,38.73
2023-05-15T11:33:02.118Z,38.70
2023-05-15T11:34:02.538Z,38.61
2023-05-15T11:35:02.133Z,38.58
2023-05-15T11:36:02.015Z,38.47
2023-05-15T11:37:02.394Z,38.39
2023-05-15T11:38:02.020Z,38.48
2023-05-15T11:39:02.390Z,38.31
2023-05-15T11:40:02.032Z,38.31
2023-05-15T11:41:02.005Z,38.19
2023-05-15T11:42:02.389Z,38.14
2023-05-15T11:43:02.033Z,38.19
2023-05-15T11:44:02.396Z,38.28
2023-05-15T11:45:02.072Z,38.33
2023-05-15T11:46:02.068Z,38.38
2023-05-15T11:47:02.146Z,38.36
2023-05-15T11:48:02.528Z,38.33
2023-05-15T11:49:02.386Z,38.46
2023-05-15T11:50:01.997Z,38.42
2023-05-15T11:51:01.999Z,38.39
2023-05-15T11:52:01.971Z,38.44
2023-05-15T11:53:01.971Z,38.46
2023-05-15T11:54:02.445Z,38.33
2023-05-15T11:55:01.940Z,38.34
2023-05-15T11:56:01.925Z,38.36
2023-05-15T11:57:01.931Z,38.33
2023-05-15T11:58:01.920Z,38.23
2023-05-15T11:59:01.915Z,38.27
2023-05-15T12:00:01.911Z,38.16
2023-05-15T12:01:01.903Z,38.11
2023-05-15T12:02:01.919Z,38.21
2023-05-15T12:03:02.058Z,38.22
2023-05-15T12:04:02.700Z,38.14
2023-05-15T12:05:02.054Z,38.19
2023-05-15T12:06:01.999Z,38.23
2023-05-15T12:07:03.101Z,38.14
2023-05-15T12:08:02.129Z,38.18
2023-05-15T12:09:02.403Z,38.40
2023-05-15T12:10:02.208Z,38.35
2023-05-15T12:11:02.164Z,38.35
2023-05-15T12:12:02.153Z,38.48
2023-05-15T12:13:03.173Z,38.23
2023-05-15T12:14:02.437Z,38.35
2023-05-15T12:15:02.246Z,38.52
2023-05-15T12:16:02.435Z,38.51
2023-05-15T12:17:02.388Z,38.43
2023-05-15T12:18:02.406Z,38.44
2023-05-15T12:19:02.485Z,39.01
2023-05-15T12:20:02.392Z,38.93
2023-05-15T12:21:02.419Z,38.66
2023-05-15T12:22:02.429Z,38.72
2023-05-15T12:23:02.430Z,38.55
2023-05-15T12:24:08.196Z,38.53
2023-05-15T12:25:02.912Z,38.46
2023-05-15T12:26:02.466Z,38.56
2023-05-15T12:27:02.430Z,38.60
2023-05-15T12:28:02.441Z,38.61
2023-05-15T12:29:02.918Z,38.72
2023-05-15T12:30:02.409Z,38.79
2023-05-15T12:31:02.431Z,38.62
2023-05-15T12:32:02.464Z,38.61
2023-05-15T12:33:02.464Z,38.59
2023-05-15T12:34:02.404Z,38.56
2023-05-15T12:35:02.470Z,38.63
2023-05-15T12:36:02.417Z,38.66
2023-05-15T12:37:02.389Z,38.59
2023-05-15T12:38:02.380Z,38.60
2023-05-15T12:39:02.358Z,38.39
2023-05-15T12:40:02.424Z,38.50
2023-05-15T12:41:02.346Z,38.50
2023-05-15T12:42:02.374Z,38.48
2023-05-15T12:43:02.331Z,38.76
2023-05-15T12:44:02.335Z,38.60
2023-05-15T12:45:02.328Z,38.87
2023-05-15T12:46:02.389Z,38.82
2023-05-15T12:47:02.303Z,38.82
2023-05-15T12:48:02.373Z,38.78
2023-05-15T12:49:02.283Z,38.85
2023-05-15T12:50:02.423Z,38.82
2023-05-15T12:51:02.274Z,38.90
2023-05-15T12:52:02.262Z,38.73
2023-05-15T12:53:02.268Z,38.82
2023-05-15T12:54:02.442Z,38.70
2023-05-15T12:55:02.572Z,38.91
2023-05-15T12:56:02.236Z,38.76
2023-05-15T12:57:03.223Z,38.78
2023-05-15T12:58:02.246Z,38.77
2023-05-15T12:59:02.219Z,38.71
2023-05-15T13:00:02.425Z,38.76